createdAt,value
2018-06-10T00:00:44.834Z,27.60
2018-06-10T00:03:47.725Z,29.30
2018-06-10T00:06:50.610Z,28.97
2018-06-10T00:09:53.511Z,24.53
2018-06-10T00:12:56.418Z,26.03
2018-06-10T00:15:59.305Z,24.97
2018-06-10T00:19:02.186Z,24.50
2018-06-10T00:22:05.130Z,24.27
2018-06-10T00:25:08.019Z,25.57
2018-06-10T00:28:11.022Z,25.70
2018-06-10T00:31:13.933Z,21.63
2018-06-10T00:34:17.633Z,17.77
2018-06-10T00:37:20.647Z,14.70
2018-06-10T00:40:23.567Z,14.07
2018-06-10T00:43:26.479Z,13.43
2018-06-10T00:46:29.418Z,15.57
2018-06-10T00:49:32.293Z,15.60
2018-06-10T00:52:35.182Z,15.80
2018-06-10T00:55:38.062Z,15.70
2018-06-10T00:58:40.953Z,14.80
2018-06-10T01:01:43.907Z,15.00
2018-06-10T01:04:46.793Z,16.10
2018-06-10T01:07:49.706Z,16.27
2018-06-10T01:10:52.591Z,17.43
2018-06-10T01:13:55.493Z,16.83
2018-06-10T01:16:58.393Z,15.43
2018-06-10T01:20:01.365Z,14.40
2018-06-10T01:23:04.266Z,14.00
2018-06-10T01:26:07.159Z,10.87
2018-06-10T01:29:10.084Z,9.17
2018-06-10T01:32:12.981Z,8.53
2018-06-10T01:35:15.881Z,8.53
2018-06-10T01:38:18.778Z,7.20
2018-06-10T01:41:21.654Z,6.80
2018-06-10T01:44:24.631Z,7.10
2018-06-10T01:47:27.558Z,6.30
2018-06-10T01:50:30.441Z,8.00
2018-06-10T01:53:33.414Z,8.20
2018-06-10T01:56:36.301Z,7.83
2018-06-10T01:59:39.237Z,5.80
2018-06-10T02:02:42.137Z,6.57
2018-06-10T02:05:45.066Z,6.70
2018-06-10T02:08:47.969Z,6.93
2018-06-10T02:11:50.869Z,6.13
2018-06-10T02:14:53.780Z,6.67
2018-06-10T02:17:56.713Z,6.80
2018-06-10T02:20:59.614Z,7.70
2018-06-10T02:24:02.585Z,6.00
2018-06-10T02:27:05.493Z,7.40
2018-06-10T02:30:08.382Z,6.50
2018-06-10T02:33:11.287Z,7.73
2018-06-10T02:36:14.184Z,7.77
2018-06-10T02:39:17.080Z,7.57
2018-06-10T02:42:19.988Z,7.40
2018-06-10T02:45:25.470Z,7.57
2018-06-10T02:48:28.400Z,7.83
2018-06-10T02:51:31.305Z,7.87
2018-06-10T02:54:34.340Z,7.07
2018-06-10T02:57:39.876Z,8.50
2018-06-10T03:00:44.582Z,7.80
2018-06-10T03:03:47.513Z,8.13
2018-06-10T03:06:50.433Z,8.37
2018-06-10T03:09:53.359Z,7.90
2018-06-10T03:12:56.292Z,7.67
2018-06-10T03:15:59.185Z,8.13
2018-06-10T03:19:02.098Z,8.50
2018-06-10T03:22:05.090Z,7.67
2018-06-10T03:25:08.057Z,8.67
2018-06-10T03:28:10.959Z,8.80
2018-06-10T03:31:13.838Z,9.00
2018-06-10T03:34:16.766Z,8.43
2018-06-10T03:37:19.734Z,7.87
2018-06-10T03:40:22.640Z,9.33
2018-06-10T03:43:25.552Z,8.90
2018-06-10T03:46:28.448Z,9.40
2018-06-10T03:49:31.368Z,9.03
2018-06-10T03:52:34.250Z,8.83
2018-06-10T03:55:37.172Z,9.13
2018-06-10T03:58:40.070Z,9.23
2018-06-10T04:01:42.954Z,9.00
2018-06-10T04:04:45.857Z,9.50
2018-06-10T04:07:48.792Z,9.63
2018-06-10T04:10:51.694Z,9.67
2018-06-10T04:13:54.604Z,10.27
2018-06-10T04:16:57.525Z,10.47
2018-06-10T04:20:00.402Z,10.47
2018-06-10T04:23:03.313Z,12.93
2018-06-10T04:26:06.232Z,14.30
2018-06-10T04:29:09.141Z,13.90
2018-06-10T04:32:12.061Z,15.60
2018-06-10T04:35:14.961Z,14.50
2018-06-10T04:38:17.868Z,16.50
2018-06-10T04:41:20.798Z,15.37
2018-06-10T04:44:23.717Z,15.93
2018-06-10T04:47:28.600Z,16.77
2018-06-10T04:50:31.540Z,17.23
2018-06-10T04:53:34.440Z,17.40
2018-06-10T04:56:37.424Z,16.63
2018-06-10T04:59:40.323Z,18.33
2018-06-10T05:02:43.252Z,19.60
2018-06-10T05:05:46.174Z,19.17
2018-06-10T05:08:49.053Z,19.23
2018-06-10T05:11:51.995Z,19.87
2018-06-10T05:14:54.900Z,19.70
2018-06-10T05:17:57.825Z,19.73
2018-06-10T05:21:00.759Z,19.57
2018-06-10T05:24:03.690Z,19.17
2018-06-10T05:27:06.586Z,19.60
2018-06-10T05:30:09.514Z,17.70
2018-06-10T05:33:12.432Z,21.20
2018-06-10T05:36:15.324Z,18.13
2018-06-10T05:39:18.355Z,18.30
2018-06-10T05:42:21.315Z,20.00
2018-06-10T05:45:24.226Z,20.47
2018-06-10T05:48:27.129Z,20.37
2018-06-10T05:51:30.065Z,19.30
2018-06-10T05:54:32.984Z,19.20
2018-06-10T05:57:35.861Z,20.20
2018-06-10T06:00:38.795Z,20.63
2018-06-10T06:03:41.749Z,21.00
2018-06-10T06:06:44.676Z,19.47
2018-06-10T06:09:47.592Z,21.87
2018-06-10T06:12:50.548Z,23.00
2018-06-10T06:15:53.453Z,25.50
2018-06-10T06:18:56.379Z,23.10
2018-06-10T06:21:59.774Z,24.10
2018-06-10T06:25:03.665Z,24.60
2018-06-10T06:28:07.179Z,24.03
2018-06-10T06:31:10.899Z,27.17
2018-06-10T06:34:14.921Z,23.60
2018-06-10T06:37:19.193Z,25.00
2018-06-10T06:40:22.940Z,26.63
2018-06-10T06:43:26.664Z,26.33
2018-06-10T06:46:30.823Z,28.63
2018-06-10T06:49:34.865Z,24.00
2018-06-10T06:52:39.002Z,26.50
2018-06-10T06:55:41.917Z,25.83
2018-06-10T06:58:44.829Z,29.00
2018-06-10T07:01:47.815Z,25.70
2018-06-10T07:04:51.022Z,24.00
2018-06-10T07:07:53.932Z,24.43
2018-06-10T07:10:56.914Z,25.30
2018-06-10T07:13:59.794Z,25.87
2018-06-10T07:17:02.879Z,27.50
2018-06-10T07:20:05.909Z,26.30
2018-06-10T07:23:08.755Z,23.20
2018-06-10T07:26:11.639Z,26.40
2018-06-10T07:29:14.520Z,24.40
2018-06-10T07:32:17.452Z,24.63
2018-06-10T07:35:21.274Z,23.97
2018-06-10T07:38:24.235Z,24.70
2018-06-10T07:41:29.969Z,82.53
2018-06-10T07:44:32.946Z,26.27
2018-06-10T07:47:35.877Z,20.37
2018-06-10T07:50:38.801Z,19.90
2018-06-10T07:53:41.694Z,20.40
2018-06-10T07:56:44.688Z,19.10
2018-06-10T07:59:47.605Z,22.97
2018-06-10T08:02:50.525Z,22.63
2018-06-10T08:05:53.429Z,22.30
2018-06-10T08:08:56.369Z,18.30
2018-06-10T08:11:59.306Z,22.63
2018-06-10T08:15:02.202Z,19.37
2018-06-10T08:18:05.139Z,21.90
2018-06-10T08:21:08.061Z,18.73
2018-06-10T08:24:14.286Z,20.53
2018-06-10T08:27:18.384Z,18.47
2018-06-10T08:30:21.364Z,20.37
2018-06-10T08:33:24.318Z,21.50
2018-06-10T08:36:27.233Z,20.97
2018-06-10T08:39:30.137Z,22.07
2018-06-10T08:42:33.094Z,20.00
2018-06-10T08:45:36.053Z,20.07
2018-06-10T08:48:38.974Z,16.87
2018-06-10T08:51:41.914Z,17.13
2018-06-10T08:54:44.815Z,19.50
2018-06-10T08:57:47.732Z,21.10
2018-06-10T09:00:50.612Z,21.67
2018-06-10T09:03:53.502Z,19.50
2018-06-10T09:06:56.422Z,20.77
2018-06-10T09:10:00.102Z,21.70
2018-06-10T09:13:03.041Z,20.23
2018-06-10T09:16:06.567Z,18.60
2018-06-10T09:19:09.614Z,19.40
2018-06-10T09:22:12.578Z,19.23
2018-06-10T09:25:15.476Z,19.87
2018-06-10T09:28:18.388Z,21.00
2018-06-10T09:31:22.430Z,21.67
2018-06-10T09:34:25.575Z,22.33
2018-06-10T09:37:28.556Z,22.60
2018-06-10T09:40:32.020Z,21.80
2018-06-10T09:43:35.143Z,21.30
2018-06-10T09:46:38.344Z,27.80
2018-06-10T09:49:41.532Z,24.80
2018-06-10T09:52:44.749Z,20.97
2018-06-10T09:55:47.718Z,21.67
2018-06-10T09:58:51.277Z,20.30
2018-06-10T10:01:54.487Z,21.63
2018-06-10T10:04:57.427Z,25.40
2018-06-10T10:08:00.405Z,23.60
2018-06-10T10:11:03.784Z,27.77
2018-06-10T10:14:07.030Z,24.97
2018-06-10T10:17:10.317Z,26.37
2018-06-10T10:20:13.448Z,24.90
2018-06-10T10:23:16.353Z,25.70
2018-06-10T10:26:19.543Z,25.60
2018-06-10T10:29:22.473Z,23.30
2018-06-10T10:32:25.366Z,23.33
2018-06-10T10:35:28.284Z,22.07
2018-06-10T10:38:31.191Z,25.07
2018-06-10T10:41:34.123Z,25.53
2018-06-10T10:44:37.031Z,26.00
2018-06-10T10:47:39.949Z,24.30
2018-06-10T10:50:42.813Z,28.17
2018-06-10T10:53:45.721Z,26.30
2018-06-10T10:56:48.621Z,27.13
2018-06-10T10:59:51.541Z,27.50
2018-06-10T11:02:54.474Z,29.30
2018-06-10T11:05:57.396Z,27.63
2018-06-10T11:09:00.289Z,27.10
2018-06-10T11:12:03.226Z,26.50
2018-06-10T11:15:06.120Z,26.60
2018-06-10T11:18:09.041Z,24.33
2018-06-10T11:21:11.945Z,23.87
2018-06-10T11:24:14.865Z,26.33
2018-06-10T11:27:17.822Z,25.57
2018-06-10T11:30:20.716Z,30.20
2018-06-10T11:33:23.632Z,29.97
2018-06-10T11:36:26.545Z,29.40
2018-06-10T11:39:29.478Z,32.43
2018-06-10T11:42:32.730Z,29.87
2018-06-10T11:45:35.577Z,33.87
2018-06-10T11:48:39.330Z,33.60
2018-06-10T11:51:42.216Z,32.97
2018-06-10T11:54:45.121Z,32.20
2018-06-10T11:57:48.030Z,33.53
2018-06-10T12:00:50.873Z,33.60
2018-06-10T12:03:53.805Z,34.03
2018-06-10T12:06:56.721Z,36.20
2018-06-10T12:09:59.685Z,32.33
2018-06-10T12:13:02.571Z,33.17
2018-06-10T12:16:05.464Z,37.47
2018-06-10T12:19:08.371Z,36.90
2018-06-10T12:22:11.265Z,33.97
2018-06-10T12:25:14.185Z,36.03
2018-06-10T12:28:17.084Z,34.33
2018-06-10T12:31:20.008Z,32.23
2018-06-10T12:34:22.923Z,33.50
2018-06-10T12:37:25.821Z,32.73
2018-06-10T12:40:28.780Z,31.60
2018-06-10T12:43:31.665Z,31.60
2018-06-10T12:46:34.661Z,31.10
2018-06-10T12:49:37.573Z,30.67
2018-06-10T12:52:40.493Z,29.87
2018-06-10T12:55:43.422Z,31.20
2018-06-10T12:58:46.337Z,30.73
2018-06-10T13:01:49.235Z,32.13
2018-06-10T13:04:52.177Z,30.73
2018-06-10T13:07:55.109Z,28.23
2018-06-10T13:10:58.013Z,29.30
2018-06-10T13:14:00.925Z,31.03
2018-06-10T13:17:03.878Z,27.97
2018-06-10T13:20:06.833Z,24.93
2018-06-10T13:23:09.752Z,25.93
2018-06-10T13:26:12.661Z,25.80
2018-06-10T13:29:15.603Z,21.97
2018-06-10T13:32:18.546Z,23.73
2018-06-10T13:35:21.465Z,25.93
2018-06-10T13:38:24.405Z,23.10
2018-06-10T13:41:27.321Z,23.43
2018-06-10T13:44:30.268Z,22.97
2018-06-10T13:47:33.203Z,25.43
2018-06-10T13:50:36.098Z,25.67
2018-06-10T13:53:39.060Z,20.53
2018-06-10T13:56:41.990Z,23.53
2018-06-10T13:59:44.878Z,22.77
2018-06-10T14:02:47.761Z,24.27
2018-06-10T14:05:50.655Z,21.40
2018-06-10T14:08:53.541Z,20.03
2018-06-10T14:11:56.521Z,24.20
2018-06-10T14:14:59.410Z,19.10
2018-06-10T14:18:02.336Z,19.47
2018-06-10T14:21:05.325Z,18.47
2018-06-10T14:24:08.220Z,18.10
2018-06-10T14:27:11.179Z,20.10
2018-06-10T14:30:14.111Z,19.83
2018-06-10T14:33:17.061Z,21.00
2018-06-10T14:36:20.057Z,20.13
2018-06-10T14:39:22.943Z,19.40
2018-06-10T14:42:25.849Z,18.40
2018-06-10T14:45:28.782Z,16.97
2018-06-10T14:48:31.724Z,16.60
2018-06-10T14:51:34.628Z,16.37
2018-06-10T14:54:37.580Z,15.20
2018-06-10T14:57:41.192Z,15.23
2018-06-10T15:00:44.144Z,15.20
2018-06-10T15:03:47.070Z,14.37
2018-06-10T15:06:50.006Z,13.87
2018-06-10T15:09:52.924Z,12.00
2018-06-10T15:12:57.444Z,12.47
2018-06-10T15:16:00.647Z,13.10
2018-06-10T15:19:03.734Z,13.30
2018-06-10T15:22:06.900Z,12.00
2018-06-10T15:25:10.340Z,12.97
2018-06-10T15:28:13.992Z,20.30
2018-06-10T15:31:18.105Z,12.77
2018-06-10T15:34:21.545Z,19.87
2018-06-10T15:37:25.507Z,19.50
2018-06-10T15:40:29.207Z,14.30
2018-06-10T15:43:33.002Z,20.53
2018-06-10T15:46:37.036Z,21.07
2018-06-10T15:49:40.777Z,18.47
2018-06-10T15:52:45.035Z,15.53
2018-06-10T15:55:48.521Z,13.23
2018-06-10T15:58:51.940Z,12.97
2018-06-10T16:01:55.571Z,18.50
2018-06-10T16:04:59.158Z,14.00
2018-06-10T16:08:02.584Z,12.37
2018-06-10T16:11:07.150Z,12.13
2018-06-10T16:14:10.650Z,12.20
2018-06-10T16:17:14.326Z,13.10
2018-06-10T16:20:17.330Z,12.30
2018-06-10T16:23:20.272Z,13.93
2018-06-10T16:26:23.262Z,12.57
2018-06-10T16:29:26.201Z,13.63
2018-06-10T16:32:29.152Z,14.23
2018-06-10T16:35:32.351Z,13.87
2018-06-10T16:38:35.289Z,14.57
2018-06-10T16:41:38.250Z,12.47
2018-06-10T16:44:41.268Z,13.23
2018-06-10T16:47:44.245Z,14.10
2018-06-10T16:50:47.201Z,12.03
2018-06-10T16:53:50.168Z,11.03
2018-06-10T16:56:53.705Z,10.80
2018-06-10T16:59:56.707Z,13.63
2018-06-10T17:02:59.684Z,13.13
2018-06-10T17:06:02.661Z,13.00
2018-06-10T17:09:08.092Z,11.50
2018-06-10T17:12:11.038Z,11.60
2018-06-10T17:15:14.013Z,11.90
2018-06-10T17:18:17.009Z,12.63
2018-06-10T17:21:19.993Z,13.03
2018-06-10T17:24:23.033Z,12.93
2018-06-10T17:27:25.999Z,12.77
2018-06-10T17:30:28.925Z,13.20
2018-06-10T17:33:31.907Z,12.70
2018-06-10T17:36:34.865Z,12.90
2018-06-10T17:39:37.874Z,13.37
2018-06-10T17:42:40.945Z,10.03
2018-06-10T17:45:43.943Z,10.40
2018-06-10T17:48:46.878Z,11.13
2018-06-10T17:51:49.841Z,11.23
2018-06-10T17:54:52.780Z,10.60
2018-06-10T17:57:55.738Z,10.83
2018-06-10T18:00:58.854Z,10.53
2018-06-10T18:04:01.969Z,13.80
2018-06-10T18:07:05.002Z,13.97
2018-06-10T18:10:07.961Z,12.70
2018-06-10T18:13:10.913Z,10.50
2018-06-10T18:16:13.914Z,9.13
2018-06-10T18:19:17.255Z,10.77
2018-06-10T18:22:20.231Z,10.87
2018-06-10T18:25:23.160Z,10.10
2018-06-10T18:28:26.093Z,11.20
2018-06-10T18:31:29.080Z,10.47
2018-06-10T18:34:32.501Z,9.40
2018-06-10T18:37:38.952Z,9.63
2018-06-10T18:40:42.514Z,10.70
2018-06-10T18:43:45.518Z,10.63
2018-06-10T18:46:49.678Z,10.70
2018-06-10T18:49:53.490Z,9.20
2018-06-10T18:52:56.751Z,9.07
2018-06-10T18:56:00.197Z,8.90
2018-06-10T18:59:03.499Z,8.63
2018-06-10T19:02:06.650Z,9.50
2018-06-10T19:05:09.928Z,10.60
2018-06-10T19:08:13.269Z,8.83
2018-06-10T19:11:16.948Z,9.20
2018-06-10T19:14:20.088Z,8.40
2018-06-10T19:17:23.832Z,8.37
2018-06-10T19:20:27.090Z,9.73
2018-06-10T19:23:30.185Z,8.70
2018-06-10T19:26:33.865Z,9.00
2018-06-10T19:29:36.886Z,9.40
2018-06-10T19:32:41.189Z,7.70
2018-06-10T19:35:44.583Z,8.77
2018-06-10T19:38:47.774Z,8.13
2018-06-10T19:41:51.419Z,8.30
2018-06-10T19:44:54.890Z,7.43
2018-06-10T19:47:58.053Z,8.53
2018-06-10T19:51:01.701Z,7.23
2018-06-10T19:54:05.388Z,8.00
2018-06-10T19:57:09.189Z,7.30
2018-06-10T20:00:12.673Z,7.90
2018-06-10T20:03:15.792Z,7.57
2018-06-10T20:06:19.513Z,7.80
2018-06-10T20:09:22.782Z,8.30
2018-06-10T20:12:26.443Z,8.70
2018-06-10T20:15:30.652Z,16.10
2018-06-10T20:18:33.567Z,9.67
2018-06-10T20:21:37.111Z,9.80
2018-06-10T20:24:40.844Z,9.87
2018-06-10T20:27:44.067Z,11.70
2018-06-10T20:30:47.070Z,10.70
2018-06-10T20:33:50.474Z,9.90
2018-06-10T20:36:54.109Z,12.17
2018-06-10T20:39:57.375Z,12.70
2018-06-10T20:43:00.418Z,13.00
2018-06-10T20:46:03.599Z,13.20
2018-06-10T20:49:06.531Z,15.00
2018-06-10T20:52:09.475Z,14.37
2018-06-10T20:55:12.546Z,14.27
2018-06-10T20:58:15.478Z,14.27
2018-06-10T21:01:18.482Z,14.70
2018-06-10T21:04:22.947Z,14.80
2018-06-10T21:07:25.877Z,15.07
2018-06-10T21:10:28.790Z,16.20
2018-06-10T21:13:31.708Z,17.07
2018-06-10T21:16:34.648Z,16.70
2018-06-10T21:19:37.604Z,16.87
2018-06-10T21:22:40.529Z,16.87
2018-06-10T21:25:43.465Z,19.47
2018-06-10T21:28:46.433Z,19.40
2018-06-10T21:31:49.375Z,18.17
2018-06-10T21:35:12.959Z,18.07
2018-06-10T21:38:15.856Z,18.87
2018-06-10T21:41:18.772Z,21.87
2018-06-10T21:44:21.714Z,19.80
2018-06-10T21:47:24.769Z,20.60
2018-06-10T21:50:27.693Z,20.90
2018-06-10T21:53:31.123Z,20.93
2018-06-10T21:56:33.984Z,22.00
2018-06-10T21:59:37.467Z,21.73
2018-06-10T22:02:40.419Z,20.27
2018-06-10T22:05:43.406Z,20.50
2018-06-10T22:08:46.425Z,19.53
2018-06-10T22:11:49.354Z,21.33
2018-06-10T22:14:52.324Z,21.70
2018-06-10T22:17:55.342Z,21.40
2018-06-10T22:20:58.329Z,21.23
2018-06-10T22:24:01.283Z,20.00
2018-06-10T22:27:04.294Z,19.67
2018-06-10T22:30:07.248Z,20.77
2018-06-10T22:33:10.204Z,20.97
2018-06-10T22:36:13.217Z,20.07
2018-06-10T22:39:16.229Z,20.97
2018-06-10T22:42:19.408Z,20.57
2018-06-10T22:45:22.388Z,20.63
2018-06-10T22:48:26.959Z,18.60
2018-06-10T22:51:31.852Z,19.37
2018-06-10T22:54:38.685Z,18.63
2018-06-10T22:57:41.907Z,18.20
2018-06-10T23:00:46.357Z,17.93
2018-06-10T23:03:49.585Z,18.53
2018-06-10T23:06:53.146Z,18.70
2018-06-10T23:10:01.263Z,18.30
2018-06-10T23:13:06.865Z,19.17
2018-06-10T23:16:09.800Z,20.90
2018-06-10T23:19:12.903Z,18.73
2018-06-10T23:22:16.768Z,19.00
2018-06-10T23:25:21.934Z,20.20
2018-06-10T23:28:26.837Z,20.43
2018-06-10T23:31:30.431Z,19.47
2018-06-10T23:34:34.081Z,20.20
2018-06-10T23:37:37.073Z,20.83
2018-06-10T23:40:39.991Z,19.50
2018-06-10T23:43:42.909Z,21.17
2018-06-10T23:46:45.830Z,20.40
2018-06-10T23:49:48.749Z,22.77
2018-06-10T23:52:51.679Z,20.30
2018-06-10T23:55:54.578Z,20.50
2018-06-10T23:58:57.496Z,20.20
